Neola, Utah
Current Conditions -  °F | °C
As of 6:53 AM on Tuesday 21 Oct 2014 (Local Time) from KVEL Reporting Station
Clear Clear  
Wind Chill: 44°   Ceiling: Unl
Heat Index: 44°   Visibility: 10mi
Dew Point: 37°   Wind: 3mph
Humidity: 76%   Direction: 270°W
Pressure: 30.03"   Gusts: NA
Location:  40.43°N, 110.03°W
Report Text: KVEL 211253Z AUTO 27003KT 10SM CLR 07/03 A3003 RMK AO2 SLP142 T00670028
Loading
Personal Weather Stations






























Interactive Weather Map
Tropical Storm Tracking
New forecast layout! Learn more

10-Day Weather Forecast

Advertisements
Track Severe Weather on mobile